sensor_id;sensor_type;location;lat;lon;timestamp;temperature;humidity
12436;DHT22;6282;51.440;6.938;2023-04-07T00:00:47;7.30;99.90
12436;DHT22;6282;51.440;6.938;2023-04-07T00:03:14;7.20;99.90
12436;DHT22;6282;51.440;6.938;2023-04-07T00:05:41;7.30;99.90
12436;DHT22;6282;51.440;6.938;2023-04-07T00:08:09;7.30;99.90
12436;DHT22;6282;51.440;6.938;2023-04-07T00:10:36;7.30;99.90
12436;DHT22;6282;51.440;6.938;2023-04-07T00:13:03;7.30;99.90
12436;DHT22;6282;51.440;6.938;2023-04-07T00:15:30;7.30;99.90
12436;DHT22;6282;51.440;6.938;2023-04-07T00:17:56;7.30;99.90
12436;DHT22;6282;51.440;6.938;2023-04-07T00:20:23;7.30;99.90
12436;DHT22;6282;51.440;6.938;2023-04-07T00:22:50;7.30;99.90
12436;DHT22;6282;51.440;6.938;2023-04-07T00:25:18;7.50;99.90
12436;DHT22;6282;51.440;6.938;2023-04-07T00:27:45;7.30;99.90
12436;DHT22;6282;51.440;6.938;2023-04-07T00:30:12;7.30;99.90
12436;DHT22;6282;51.440;6.938;2023-04-07T00:32:39;7.30;99.90
12436;DHT22;6282;51.440;6.938;2023-04-07T00:35:07;7.40;99.90
12436;DHT22;6282;51.440;6.938;2023-04-07T00:37:34;7.30;99.90
12436;DHT22;6282;51.440;6.938;2023-04-07T00:40:00;7.30;99.90
12436;DHT22;6282;51.440;6.938;2023-04-07T00:42:30;7.30;99.90
12436;DHT22;6282;51.440;6.938;2023-04-07T00:44:56;7.30;99.90
12436;DHT22;6282;51.440;6.938;2023-04-07T00:47:23;7.30;99.90
12436;DHT22;6282;51.440;6.938;2023-04-07T00:49:50;7.30;99.90
12436;DHT22;6282;51.440;6.938;2023-04-07T00:52:18;7.30;99.90
12436;DHT22;6282;51.440;6.938;2023-04-07T00:54:53;7.30;99.90
12436;DHT22;6282;51.440;6.938;2023-04-07T00:57:20;7.30;99.90
12436;DHT22;6282;51.440;6.938;2023-04-07T00:59:48;7.30;99.90
12436;DHT22;6282;51.440;6.938;2023-04-07T01:02:17;7.30;99.90
12436;DHT22;6282;51.440;6.938;2023-04-07T01:04:54;7.50;99.90
12436;DHT22;6282;51.440;6.938;2023-04-07T01:07:36;7.30;99.90
12436;DHT22;6282;51.440;6.938;2023-04-07T01:10:10;7.40;99.90
12436;DHT22;6282;51.440;6.938;2023-04-07T01:12:46;7.40;99.90
12436;DHT22;6282;51.440;6.938;2023-04-07T01:15:20;7.30;99.90
12436;DHT22;6282;51.440;6.938;2023-04-07T01:17:54;7.40;99.90
12436;DHT22;6282;51.440;6.938;2023-04-07T01:20:22;7.40;99.90
12436;DHT22;6282;51.440;6.938;2023-04-07T01:22:54;7.40;99.90
12436;DHT22;6282;51.440;6.938;2023-04-07T01:25:26;7.40;99.90
12436;DHT22;6282;51.440;6.938;2023-04-07T01:28:11;7.40;99.90
12436;DHT22;6282;51.440;6.938;2023-04-07T01:30:42;7.50;99.90
12436;DHT22;6282;51.440;6.938;2023-04-07T01:33:10;7.50;99.90
12436;DHT22;6282;51.440;6.938;2023-04-07T01:35:38;7.70;99.90
12436;DHT22;6282;51.440;6.938;2023-04-07T01:38:06;7.60;99.90
12436;DHT22;6282;51.440;6.938;2023-04-07T01:40:34;7.50;99.90
12436;DHT22;6282;51.440;6.938;2023-04-07T01:43:02;7.60;99.90
12436;DHT22;6282;51.440;6.938;2023-04-07T01:45:29;7.60;99.90
12436;DHT22;6282;51.440;6.938;2023-04-07T01:47:59;7.60;99.90
12436;DHT22;6282;51.440;6.938;2023-04-07T01:50:27;7.60;99.90
12436;DHT22;6282;51.440;6.938;2023-04-07T01:52:55;7.60;99.90
12436;DHT22;6282;51.440;6.938;2023-04-07T01:55:23;7.60;99.90
12436;DHT22;6282;51.440;6.938;2023-04-07T01:57:52;7.60;99.90
12436;DHT22;6282;51.440;6.938;2023-04-07T02:00:19;7.60;99.90
12436;DHT22;6282;51.440;6.938;2023-04-07T02:02:48;7.70;99.90
12436;DHT22;6282;51.440;6.938;2023-04-07T02:05:20;7.70;99.90
12436;DHT22;6282;51.440;6.938;2023-04-07T02:07:51;7.80;99.90
12436;DHT22;6282;51.440;6.938;2023-04-07T02:10:22;7.80;99.90
12436;DHT22;6282;51.440;6.938;2023-04-07T02:12:50;7.80;99.90
12436;DHT22;6282;51.440;6.938;2023-04-07T02:15:18;7.80;99.90
12436;DHT22;6282;51.440;6.938;2023-04-07T02:17:48;7.80;99.90
12436;DHT22;6282;51.440;6.938;2023-04-07T02:20:19;7.80;99.90
12436;DHT22;6282;51.440;6.938;2023-04-07T02:22:46;7.90;99.90
12436;DHT22;6282;51.440;6.938;2023-04-07T02:25:31;7.80;99.90
12436;DHT22;6282;51.440;6.938;2023-04-07T02:27:59;7.90;99.90
12436;DHT22;6282;51.440;6.938;2023-04-07T02:30:27;8.00;99.90
12436;DHT22;6282;51.440;6.938;2023-04-07T02:32:54;8.00;99.90
12436;DHT22;6282;51.440;6.938;2023-04-07T02:35:23;8.00;99.90
12436;DHT22;6282;51.440;6.938;2023-04-07T02:37:50;8.00;99.90
12436;DHT22;6282;51.440;6.938;2023-04-07T02:40:17;8.00;99.90
12436;DHT22;6282;51.440;6.938;2023-04-07T02:42:44;8.10;99.90
12436;DHT22;6282;51.440;6.938;2023-04-07T02:45:11;8.10;99.90
12436;DHT22;6282;51.440;6.938;2023-04-07T02:47:38;8.10;99.90
12436;DHT22;6282;51.440;6.938;2023-04-07T02:50:06;8.20;99.90
12436;DHT22;6282;51.440;6.938;2023-04-07T02:52:34;8.30;99.90
12436;DHT22;6282;51.440;6.938;2023-04-07T02:55:01;8.20;99.90
12436;DHT22;6282;51.440;6.938;2023-04-07T02:57:28;8.20;99.90
12436;DHT22;6282;51.440;6.938;2023-04-07T02:59:55;8.20;99.90
12436;DHT22;6282;51.440;6.938;2023-04-07T03:02:22;8.20;99.90
12436;DHT22;6282;51.440;6.938;2023-04-07T03:04:50;8.20;99.90
12436;DHT22;6282;51.440;6.938;2023-04-07T03:07:17;8.20;99.90
12436;DHT22;6282;51.440;6.938;2023-04-07T03:09:45;8.20;99.90
12436;DHT22;6282;51.440;6.938;2023-04-07T03:12:13;8.30;99.90
12436;DHT22;6282;51.440;6.938;2023-04-07T03:14:40;8.20;99.90
12436;DHT22;6282;51.440;6.938;2023-04-07T03:17:07;8.30;99.90
12436;DHT22;6282;51.440;6.938;2023-04-07T03:19:33;8.30;99.90
12436;DHT22;6282;51.440;6.938;2023-04-07T03:22:00;8.30;99.90
12436;DHT22;6282;51.440;6.938;2023-04-07T03:24:27;8.30;99.90
12436;DHT22;6282;51.440;6.938;2023-04-07T03:26:55;8.30;99.90
12436;DHT22;6282;51.440;6.938;2023-04-07T03:29:22;8.30;99.90
12436;DHT22;6282;51.440;6.938;2023-04-07T03:31:49;8.30;99.90
12436;DHT22;6282;51.440;6.938;2023-04-07T03:34:16;8.30;99.90
12436;DHT22;6282;51.440;6.938;2023-04-07T03:36:43;8.30;99.90
12436;DHT22;6282;51.440;6.938;2023-04-07T03:39:10;8.30;99.90
12436;DHT22;6282;51.440;6.938;2023-04-07T03:41:37;8.30;99.90
12436;DHT22;6282;51.440;6.938;2023-04-07T03:44:06;8.30;99.90
12436;DHT22;6282;51.440;6.938;2023-04-07T03:46:32;8.30;99.90
12436;DHT22;6282;51.440;6.938;2023-04-07T03:48:59;8.30;99.90
12436;DHT22;6282;51.440;6.938;2023-04-07T03:51:26;8.20;99.90
12436;DHT22;6282;51.440;6.938;2023-04-07T03:53:53;8.30;99.90
12436;DHT22;6282;51.440;6.938;2023-04-07T03:56:20;8.20;99.90
12436;DHT22;6282;51.440;6.938;2023-04-07T03:58:47;8.20;99.90
12436;DHT22;6282;51.440;6.938;2023-04-07T04:01:15;8.20;99.90
12436;DHT22;6282;51.440;6.938;2023-04-07T04:03:42;8.20;99.90
12436;DHT22;6282;51.440;6.938;2023-04-07T04:06:09;8.20;99.90
12436;DHT22;6282;51.440;6.938;2023-04-07T04:08:36;8.20;99.90
12436;DHT22;6282;51.440;6.938;2023-04-07T04:11:02;8.20;99.90
12436;DHT22;6282;51.440;6.938;2023-04-07T04:13:29;8.10;99.90
12436;DHT22;6282;51.440;6.938;2023-04-07T04:15:56;8.10;99.90
12436;DHT22;6282;51.440;6.938;2023-04-07T04:18:24;8.10;99.90
12436;DHT22;6282;51.440;6.938;2023-04-07T04:20:51;8.20;99.90
12436;DHT22;6282;51.440;6.938;2023-04-07T04:23:18;8.20;99.90
12436;DHT22;6282;51.440;6.938;2023-04-07T04:25:45;8.10;99.90
12436;DHT22;6282;51.440;6.938;2023-04-07T04:28:12;8.10;99.90
12436;DHT22;6282;51.440;6.938;2023-04-07T04:30:39;8.10;99.90
12436;DHT22;6282;51.440;6.938;2023-04-07T04:33:05;8.20;99.90
12436;DHT22;6282;51.440;6.938;2023-04-07T04:35:34;8.20;99.90
12436;DHT22;6282;51.440;6.938;2023-04-07T04:38:01;8.10;99.90
12436;DHT22;6282;51.440;6.938;2023-04-07T04:40:28;8.10;99.90
12436;DHT22;6282;51.440;6.938;2023-04-07T04:42:55;8.00;99.90
12436;DHT22;6282;51.440;6.938;2023-04-07T04:45:22;8.10;99.90
12436;DHT22;6282;51.440;6.938;2023-04-07T04:47:48;8.10;99.90
12436;DHT22;6282;51.440;6.938;2023-04-07T04:50:15;8.10;99.90
12436;DHT22;6282;51.440;6.938;2023-04-07T04:52:44;8.10;99.90
12436;DHT22;6282;51.440;6.938;2023-04-07T04:55:11;8.00;99.90
12436;DHT22;6282;51.440;6.938;2023-04-07T04:57:37;8.00;99.90
12436;DHT22;6282;51.440;6.938;2023-04-07T05:00:05;8.00;99.90
12436;DHT22;6282;51.440;6.938;2023-04-07T05:02:32;7.90;99.90
12436;DHT22;6282;51.440;6.938;2023-04-07T05:04:59;7.90;99.90
12436;DHT22;6282;51.440;6.938;2023-04-07T05:07:26;8.10;99.90
12436;DHT22;6282;51.440;6.938;2023-04-07T05:09:54;8.00;99.90
12436;DHT22;6282;51.440;6.938;2023-04-07T05:12:21;8.00;99.90
12436;DHT22;6282;51.440;6.938;2023-04-07T05:14:48;7.90;99.90
12436;DHT22;6282;51.440;6.938;2023-04-07T05:17:14;7.90;99.90
12436;DHT22;6282;51.440;6.938;2023-04-07T05:19:42;7.90;99.90
12436;DHT22;6282;51.440;6.938;2023-04-07T05:22:08;7.90;99.90
12436;DHT22;6282;51.440;6.938;2023-04-07T05:24:35;7.90;99.90
12436;DHT22;6282;51.440;6.938;2023-04-07T05:27:04;8.00;99.90
12436;DHT22;6282;51.440;6.938;2023-04-07T05:29:31;7.90;99.90
12436;DHT22;6282;51.440;6.938;2023-04-07T05:31:57;7.90;99.90
12436;DHT22;6282;51.440;6.938;2023-04-07T05:34:26;7.90;99.90
12436;DHT22;6282;51.440;6.938;2023-04-07T05:36:52;7.90;99.90
12436;DHT22;6282;51.440;6.938;2023-04-07T05:39:19;7.90;99.90
12436;DHT22;6282;51.440;6.938;2023-04-07T05:41:46;7.90;99.90
12436;DHT22;6282;51.440;6.938;2023-04-07T05:44:14;7.90;99.90
12436;DHT22;6282;51.440;6.938;2023-04-07T05:46:41;7.90;99.90
12436;DHT22;6282;51.440;6.938;2023-04-07T05:49:08;8.00;99.90
12436;DHT22;6282;51.440;6.938;2023-04-07T05:51:35;8.00;99.90
12436;DHT22;6282;51.440;6.938;2023-04-07T05:54:01;7.90;99.90
12436;DHT22;6282;51.440;6.938;2023-04-07T05:56:28;8.00;99.90
12436;DHT22;6282;51.440;6.938;2023-04-07T05:58:55;7.90;99.90
12436;DHT22;6282;51.440;6.938;2023-04-07T06:01:24;8.00;99.90
12436;DHT22;6282;51.440;6.938;2023-04-07T06:03:51;7.90;99.90
12436;DHT22;6282;51.440;6.938;2023-04-07T06:06:18;7.90;99.90
12436;DHT22;6282;51.440;6.938;2023-04-07T06:08:45;7.90;99.90
12436;DHT22;6282;51.440;6.938;2023-04-07T06:11:12;7.90;99.90
12436;DHT22;6282;51.440;6.938;2023-04-07T06:13:39;8.00;99.90
12436;DHT22;6282;51.440;6.938;2023-04-07T06:16:06;8.00;99.90
12436;DHT22;6282;51.440;6.938;2023-04-07T06:18:34;8.00;99.90
12436;DHT22;6282;51.440;6.938;2023-04-07T06:21:01;8.00;99.90
12436;DHT22;6282;51.440;6.938;2023-04-07T06:23:28;8.10;99.90
12436;DHT22;6282;51.440;6.938;2023-04-07T06:25:54;8.00;99.90
12436;DHT22;6282;51.440;6.938;2023-04-07T06:28:21;8.00;99.90
12436;DHT22;6282;51.440;6.938;2023-04-07T06:30:48;8.10;99.90
12436;DHT22;6282;51.440;6.938;2023-04-07T06:33:15;8.00;99.90
12436;DHT22;6282;51.440;6.938;2023-04-07T06:35:43;8.10;99.90
12436;DHT22;6282;51.440;6.938;2023-04-07T06:38:10;8.10;99.90
12436;DHT22;6282;51.440;6.938;2023-04-07T06:40:37;8.10;99.90
12436;DHT22;6282;51.440;6.938;2023-04-07T06:43:04;8.20;99.90
12436;DHT22;6282;51.440;6.938;2023-04-07T06:45:31;8.20;99.90
12436;DHT22;6282;51.440;6.938;2023-04-07T06:47:58;8.30;99.90
12436;DHT22;6282;51.440;6.938;2023-04-07T06:50:24;8.20;99.90
12436;DHT22;6282;51.440;6.938;2023-04-07T06:52:53;8.30;99.90
12436;DHT22;6282;51.440;6.938;2023-04-07T06:55:19;8.20;99.90
12436;DHT22;6282;51.440;6.938;2023-04-07T06:57:46;8.30;99.90
12436;DHT22;6282;51.440;6.938;2023-04-07T07:00:15;8.40;99.90
12436;DHT22;6282;51.440;6.938;2023-04-07T07:02:42;8.30;99.90
12436;DHT22;6282;51.440;6.938;2023-04-07T07:05:09;8.30;99.90
12436;DHT22;6282;51.440;6.938;2023-04-07T07:07:36;8.20;99.90
12436;DHT22;6282;51.440;6.938;2023-04-07T07:10:05;8.20;99.90
12436;DHT22;6282;51.440;6.938;2023-04-07T07:12:32;8.30;99.90
12436;DHT22;6282;51.440;6.938;2023-04-07T07:14:59;8.20;99.90
12436;DHT22;6282;51.440;6.938;2023-04-07T07:17:26;8.30;99.90
12436;DHT22;6282;51.440;6.938;2023-04-07T07:19:53;8.20;99.90
12436;DHT22;6282;51.440;6.938;2023-04-07T07:22:19;8.10;99.90
12436;DHT22;6282;51.440;6.938;2023-04-07T07:24:46;8.10;99.90
12436;DHT22;6282;51.440;6.938;2023-04-07T07:27:14;8.00;99.90
12436;DHT22;6282;51.440;6.938;2023-04-07T07:29:41;8.30;99.90
12436;DHT22;6282;51.440;6.938;2023-04-07T07:32:08;8.20;99.90
12436;DHT22;6282;51.440;6.938;2023-04-07T07:34:35;8.30;99.90
12436;DHT22;6282;51.440;6.938;2023-04-07T07:37:01;8.30;99.90
12436;DHT22;6282;51.440;6.938;2023-04-07T07:39:28;8.30;99.90
12436;DHT22;6282;51.440;6.938;2023-04-07T07:41:55;8.40;99.90
12436;DHT22;6282;51.440;6.938;2023-04-07T07:44:23;8.50;99.90
12436;DHT22;6282;51.440;6.938;2023-04-07T07:46:50;8.50;99.90
12436;DHT22;6282;51.440;6.938;2023-04-07T07:49:17;8.50;99.90
12436;DHT22;6282;51.440;6.938;2023-04-07T07:51:44;8.50;99.90
12436;DHT22;6282;51.440;6.938;2023-04-07T07:54:11;8.40;99.90
12436;DHT22;6282;51.440;6.938;2023-04-07T07:56:38;8.50;99.90
12436;DHT22;6282;51.440;6.938;2023-04-07T07:59:05;8.50;99.90
12436;DHT22;6282;51.440;6.938;2023-04-07T08:01:33;8.40;99.90
12436;DHT22;6282;51.440;6.938;2023-04-07T08:04:00;8.40;99.90
12436;DHT22;6282;51.440;6.938;2023-04-07T08:06:27;8.40;99.90
12436;DHT22;6282;51.440;6.938;2023-04-07T08:08:56;8.50;99.90
12436;DHT22;6282;51.440;6.938;2023-04-07T08:11:23;8.30;99.90
12436;DHT22;6282;51.440;6.938;2023-04-07T08:13:50;8.40;99.90
12436;DHT22;6282;51.440;6.938;2023-04-07T08:16:18;8.40;99.90
12436;DHT22;6282;51.440;6.938;2023-04-07T08:18:47;8.50;99.90
12436;DHT22;6282;51.440;6.938;2023-04-07T08:21:13;8.50;99.90
12436;DHT22;6282;51.440;6.938;2023-04-07T08:23:41;8.50;99.90
12436;DHT22;6282;51.440;6.938;2023-04-07T08:26:08;8.50;99.90
12436;DHT22;6282;51.440;6.938;2023-04-07T08:28:35;8.70;99.90
12436;DHT22;6282;51.440;6.938;2023-04-07T08:31:01;8.70;99.90
12436;DHT22;6282;51.440;6.938;2023-04-07T08:33:28;8.80;99.90
12436;DHT22;6282;51.440;6.938;2023-04-07T08:35:57;8.70;99.90
12436;DHT22;6282;51.440;6.938;2023-04-07T08:38:24;8.80;99.90
12436;DHT22;6282;51.440;6.938;2023-04-07T08:40:57;8.80;99.90
12436;DHT22;6282;51.440;6.938;2023-04-07T08:43:26;8.90;99.90
12436;DHT22;6282;51.440;6.938;2023-04-07T08:45:56;8.70;99.90
12436;DHT22;6282;51.440;6.938;2023-04-07T08:48:24;8.70;99.90
12436;DHT22;6282;51.440;6.938;2023-04-07T08:50:53;8.80;99.90
12436;DHT22;6282;51.440;6.938;2023-04-07T08:53:28;8.70;99.90
12436;DHT22;6282;51.440;6.938;2023-04-07T08:55:59;8.70;99.90
12436;DHT22;6282;51.440;6.938;2023-04-07T08:58:26;8.70;99.90
12436;DHT22;6282;51.440;6.938;2023-04-07T09:00:53;8.50;99.90
12436;DHT22;6282;51.440;6.938;2023-04-07T09:03:22;8.50;99.90
12436;DHT22;6282;51.440;6.938;2023-04-07T09:05:49;8.40;99.90
12436;DHT22;6282;51.440;6.938;2023-04-07T09:08:16;8.40;99.90
12436;DHT22;6282;51.440;6.938;2023-04-07T09:10:44;8.50;99.90
12436;DHT22;6282;51.440;6.938;2023-04-07T09:13:12;8.50;99.90
12436;DHT22;6282;51.440;6.938;2023-04-07T09:15:39;8.50;99.90
12436;DHT22;6282;51.440;6.938;2023-04-07T09:18:06;8.60;99.90
12436;DHT22;6282;51.440;6.938;2023-04-07T09:20:57;8.70;99.90
12436;DHT22;6282;51.440;6.938;2023-04-07T09:23:31;8.80;99.90
12436;DHT22;6282;51.440;6.938;2023-04-07T09:28:44;8.80;99.90
12436;DHT22;6282;51.440;6.938;2023-04-07T09:31:12;8.80;99.90
12436;DHT22;6282;51.440;6.938;2023-04-07T09:33:39;8.70;99.90
12436;DHT22;6282;51.440;6.938;2023-04-07T09:36:06;8.60;99.90
12436;DHT22;6282;51.440;6.938;2023-04-07T09:38:33;8.60;99.90
12436;DHT22;6282;51.440;6.938;2023-04-07T09:41:11;8.60;99.90
12436;DHT22;6282;51.440;6.938;2023-04-07T09:43:42;8.60;99.90
12436;DHT22;6282;51.440;6.938;2023-04-07T09:46:12;8.70;99.90
12436;DHT22;6282;51.440;6.938;2023-04-07T09:48:39;8.70;99.90
12436;DHT22;6282;51.440;6.938;2023-04-07T09:51:08;8.60;99.90
12436;DHT22;6282;51.440;6.938;2023-04-07T09:53:46;8.60;99.90
12436;DHT22;6282;51.440;6.938;2023-04-07T09:56:16;8.40;99.90
12436;DHT22;6282;51.440;6.938;2023-04-07T09:58:45;8.40;99.90
12436;DHT22;6282;51.440;6.938;2023-04-07T10:01:13;8.50;99.90
12436;DHT22;6282;51.440;6.938;2023-04-07T10:03:41;8.50;99.90
12436;DHT22;6282;51.440;6.938;2023-04-07T10:06:08;8.50;99.90
12436;DHT22;6282;51.440;6.938;2023-04-07T10:08:38;8.50;99.90
12436;DHT22;6282;51.440;6.938;2023-04-07T10:11:05;8.60;99.90
12436;DHT22;6282;51.440;6.938;2023-04-07T10:13:36;8.70;99.90
12436;DHT22;6282;51.440;6.938;2023-04-07T10:16:05;8.50;99.90
12436;DHT22;6282;51.440;6.938;2023-04-07T10:18:34;8.70;99.90
12436;DHT22;6282;51.440;6.938;2023-04-07T10:21:02;8.70;99.90
12436;DHT22;6282;51.440;6.938;2023-04-07T10:23:42;8.60;99.90
12436;DHT22;6282;51.440;6.938;2023-04-07T10:26:15;8.70;99.90
12436;DHT22;6282;51.440;6.938;2023-04-07T10:28:47;8.80;99.90
12436;DHT22;6282;51.440;6.938;2023-04-07T10:31:17;8.90;99.90
12436;DHT22;6282;51.440;6.938;2023-04-07T10:33:45;8.90;99.90
12436;DHT22;6282;51.440;6.938;2023-04-07T10:36:12;8.80;99.90
12436;DHT22;6282;51.440;6.938;2023-04-07T10:38:40;8.90;99.90
12436;DHT22;6282;51.440;6.938;2023-04-07T10:41:32;9.00;99.90
12436;DHT22;6282;51.440;6.938;2023-04-07T10:44:01;9.00;99.90
12436;DHT22;6282;51.440;6.938;2023-04-07T10:47:01;8.90;99.90
12436;DHT22;6282;51.440;6.938;2023-04-07T10:49:29;9.00;99.90
12436;DHT22;6282;51.440;6.938;2023-04-07T10:52:26;9.00;99.90
12436;DHT22;6282;51.440;6.938;2023-04-07T10:55:27;9.00;99.90
12436;DHT22;6282;51.440;6.938;2023-04-07T10:58:28;9.20;99.90
12436;DHT22;6282;51.440;6.938;2023-04-07T11:01:18;9.30;99.90
12436;DHT22;6282;51.440;6.938;2023-04-07T11:03:57;9.60;99.90
12436;DHT22;6282;51.440;6.938;2023-04-07T11:06:24;9.20;99.90
12436;DHT22;6282;51.440;6.938;2023-04-07T11:08:52;9.20;99.90
12436;DHT22;6282;51.440;6.938;2023-04-07T11:11:36;9.00;99.90
12436;DHT22;6282;51.440;6.938;2023-04-07T11:14:04;9.20;99.90
12436;DHT22;6282;51.440;6.938;2023-04-07T11:16:38;9.30;99.90
12436;DHT22;6282;51.440;6.938;2023-04-07T11:19:05;9.40;99.90
12436;DHT22;6282;51.440;6.938;2023-04-07T11:21:32;9.50;99.90
12436;DHT22;6282;51.440;6.938;2023-04-07T11:23:59;9.40;99.90
12436;DHT22;6282;51.440;6.938;2023-04-07T11:26:26;9.40;99.90
12436;DHT22;6282;51.440;6.938;2023-04-07T11:28:54;9.30;99.90
12436;DHT22;6282;51.440;6.938;2023-04-07T11:31:23;9.20;99.90
12436;DHT22;6282;51.440;6.938;2023-04-07T11:33:53;9.20;99.90
12436;DHT22;6282;51.440;6.938;2023-04-07T11:36:28;9.20;99.90
12436;DHT22;6282;51.440;6.938;2023-04-07T11:38:56;9.10;99.90
12436;DHT22;6282;51.440;6.938;2023-04-07T11:41:24;9.30;99.90
12436;DHT22;6282;51.440;6.938;2023-04-07T11:44:03;9.40;99.90
12436;DHT22;6282;51.440;6.938;2023-04-07T11:46:30;9.50;99.90
12436;DHT22;6282;51.440;6.938;2023-04-07T11:49:09;9.70;99.90
12436;DHT22;6282;51.440;6.938;2023-04-07T11:51:36;9.70;99.90
12436;DHT22;6282;51.440;6.938;2023-04-07T11:54:03;9.80;99.90
12436;DHT22;6282;51.440;6.938;2023-04-07T11:56:41;9.80;99.90
12436;DHT22;6282;51.440;6.938;2023-04-07T11:59:08;9.90;99.90
12436;DHT22;6282;51.440;6.938;2023-04-07T12:01:43;9.80;99.90
12436;DHT22;6282;51.440;6.938;2023-04-07T12:04:13;9.80;99.90
12436;DHT22;6282;51.440;6.938;2023-04-07T12:06:40;9.80;99.90
12436;DHT22;6282;51.440;6.938;2023-04-07T12:09:08;9.70;99.90
12436;DHT22;6282;51.440;6.938;2023-04-07T12:11:35;9.80;99.90
12436;DHT22;6282;51.440;6.938;2023-04-07T12:14:03;9.90;99.90
12436;DHT22;6282;51.440;6.938;2023-04-07T12:16:31;9.80;99.90
12436;DHT22;6282;51.440;6.938;2023-04-07T12:18:58;9.90;99.90
12436;DHT22;6282;51.440;6.938;2023-04-07T12:21:26;10.00;99.90
12436;DHT22;6282;51.440;6.938;2023-04-07T12:23:53;10.00;99.90
12436;DHT22;6282;51.440;6.938;2023-04-07T12:26:20;10.10;99.90
12436;DHT22;6282;51.440;6.938;2023-04-07T12:28:47;10.00;99.90
12436;DHT22;6282;51.440;6.938;2023-04-07T12:31:14;9.90;99.90
12436;DHT22;6282;51.440;6.938;2023-04-07T12:33:41;9.80;99.90
12436;DHT22;6282;51.440;6.938;2023-04-07T12:36:08;9.70;99.90
12436;DHT22;6282;51.440;6.938;2023-04-07T12:38:36;9.80;99.90
12436;DHT22;6282;51.440;6.938;2023-04-07T12:41:03;9.80;99.90
12436;DHT22;6282;51.440;6.938;2023-04-07T12:43:30;9.80;99.90
12436;DHT22;6282;51.440;6.938;2023-04-07T12:45:57;9.80;99.90
12436;DHT22;6282;51.440;6.938;2023-04-07T12:48:24;9.80;99.90
12436;DHT22;6282;51.440;6.938;2023-04-07T12:50:52;9.70;99.90
12436;DHT22;6282;51.440;6.938;2023-04-07T12:53:19;9.60;99.90
12436;DHT22;6282;51.440;6.938;2023-04-07T12:55:47;9.60;99.90
12436;DHT22;6282;51.440;6.938;2023-04-07T12:58:15;9.50;99.90
12436;DHT22;6282;51.440;6.938;2023-04-07T13:00:43;9.50;99.90
12436;DHT22;6282;51.440;6.938;2023-04-07T13:03:11;9.60;99.90
12436;DHT22;6282;51.440;6.938;2023-04-07T13:05:38;9.70;99.90
12436;DHT22;6282;51.440;6.938;2023-04-07T13:08:05;9.90;99.90
12436;DHT22;6282;51.440;6.938;2023-04-07T13:10:32;9.90;99.90
12436;DHT22;6282;51.440;6.938;2023-04-07T13:13:00;10.10;99.90
12436;DHT22;6282;51.440;6.938;2023-04-07T13:15:27;10.00;99.90
12436;DHT22;6282;51.440;6.938;2023-04-07T13:17:54;10.00;99.90
12436;DHT22;6282;51.440;6.938;2023-04-07T13:20:21;10.00;99.90
12436;DHT22;6282;51.440;6.938;2023-04-07T13:22:48;10.10;99.90
12436;DHT22;6282;51.440;6.938;2023-04-07T13:25:14;10.10;99.90
12436;DHT22;6282;51.440;6.938;2023-04-07T13:27:41;10.10;99.90
12436;DHT22;6282;51.440;6.938;2023-04-07T13:30:11;9.80;99.90
12436;DHT22;6282;51.440;6.938;2023-04-07T13:32:38;9.60;99.90
12436;DHT22;6282;51.440;6.938;2023-04-07T13:35:05;9.60;99.90
12436;DHT22;6282;51.440;6.938;2023-04-07T13:37:32;9.50;99.90
12436;DHT22;6282;51.440;6.938;2023-04-07T13:39:58;9.50;99.90
12436;DHT22;6282;51.440;6.938;2023-04-07T13:42:25;9.50;99.90
12436;DHT22;6282;51.440;6.938;2023-04-07T13:44:52;9.50;99.90
12436;DHT22;6282;51.440;6.938;2023-04-07T13:47:20;9.50;99.90
12436;DHT22;6282;51.440;6.938;2023-04-07T13:49:47;9.40;99.90
12436;DHT22;6282;51.440;6.938;2023-04-07T13:52:16;9.50;99.90
12436;DHT22;6282;51.440;6.938;2023-04-07T13:54:43;9.40;99.90
12436;DHT22;6282;51.440;6.938;2023-04-07T13:57:10;9.50;99.90
12436;DHT22;6282;51.440;6.938;2023-04-07T13:59:39;9.70;99.90
12436;DHT22;6282;51.440;6.938;2023-04-07T14:02:06;9.70;99.90
12436;DHT22;6282;51.440;6.938;2023-04-07T14:04:34;9.60;99.90
12436;DHT22;6282;51.440;6.938;2023-04-07T14:07:00;9.70;99.90
12436;DHT22;6282;51.440;6.938;2023-04-07T14:09:28;9.90;99.90
12436;DHT22;6282;51.440;6.938;2023-04-07T14:11:54;10.00;99.90
12436;DHT22;6282;51.440;6.938;2023-04-07T14:14:21;9.90;99.90
12436;DHT22;6282;51.440;6.938;2023-04-07T14:16:48;9.80;99.90
12436;DHT22;6282;51.440;6.938;2023-04-07T14:19:17;9.80;99.90
12436;DHT22;6282;51.440;6.938;2023-04-07T14:21:45;9.70;99.90
12436;DHT22;6282;51.440;6.938;2023-04-07T14:24:12;9.60;99.90
12436;DHT22;6282;51.440;6.938;2023-04-07T14:26:39;9.50;99.90
12436;DHT22;6282;51.440;6.938;2023-04-07T14:29:06;9.50;99.90
12436;DHT22;6282;51.440;6.938;2023-04-07T14:31:33;9.40;99.90
12436;DHT22;6282;51.440;6.938;2023-04-07T14:33:59;9.30;99.90
12436;DHT22;6282;51.440;6.938;2023-04-07T14:36:26;9.10;99.90
12436;DHT22;6282;51.440;6.938;2023-04-07T14:38:55;9.10;99.90
12436;DHT22;6282;51.440;6.938;2023-04-07T14:41:23;9.00;99.90
12436;DHT22;6282;51.440;6.938;2023-04-07T14:43:50;9.20;99.90
12436;DHT22;6282;51.440;6.938;2023-04-07T14:46:20;9.20;99.90
12436;DHT22;6282;51.440;6.938;2023-04-07T14:48:47;9.10;99.90
12436;DHT22;6282;51.440;6.938;2023-04-07T14:51:15;9.30;99.90
12436;DHT22;6282;51.440;6.938;2023-04-07T14:53:42;9.30;99.90
12436;DHT22;6282;51.440;6.938;2023-04-07T14:56:11;9.30;99.90
12436;DHT22;6282;51.440;6.938;2023-04-07T14:58:38;9.30;99.90
12436;DHT22;6282;51.440;6.938;2023-04-07T15:01:06;9.40;99.90
12436;DHT22;6282;51.440;6.938;2023-04-07T15:03:33;9.50;99.90
12436;DHT22;6282;51.440;6.938;2023-04-07T15:06:00;9.40;99.90
12436;DHT22;6282;51.440;6.938;2023-04-07T15:08:27;9.30;99.90
12436;DHT22;6282;51.440;6.938;2023-04-07T15:10:54;9.40;99.90
12436;DHT22;6282;51.440;6.938;2023-04-07T15:13:22;9.50;99.90
12436;DHT22;6282;51.440;6.938;2023-04-07T15:15:49;9.70;99.90
12436;DHT22;6282;51.440;6.938;2023-04-07T15:18:15;9.50;99.90
12436;DHT22;6282;51.440;6.938;2023-04-07T15:20:42;9.40;99.90
12436;DHT22;6282;51.440;6.938;2023-04-07T15:23:09;9.30;99.90
12436;DHT22;6282;51.440;6.938;2023-04-07T15:25:39;9.50;99.90
12436;DHT22;6282;51.440;6.938;2023-04-07T15:28:05;9.40;99.90
12436;DHT22;6282;51.440;6.938;2023-04-07T15:30:34;9.20;99.90
12436;DHT22;6282;51.440;6.938;2023-04-07T15:33:02;9.10;99.90
12436;DHT22;6282;51.440;6.938;2023-04-07T15:35:29;9.20;99.90
12436;DHT22;6282;51.440;6.938;2023-04-07T15:37:56;9.10;99.90
12436;DHT22;6282;51.440;6.938;2023-04-07T15:40:22;9.20;99.90
12436;DHT22;6282;51.440;6.938;2023-04-07T15:42:49;9.10;99.90
12436;DHT22;6282;51.440;6.938;2023-04-07T15:45:16;9.00;99.90
12436;DHT22;6282;51.440;6.938;2023-04-07T15:47:44;9.20;99.90
12436;DHT22;6282;51.440;6.938;2023-04-07T15:50:11;9.10;99.90
12436;DHT22;6282;51.440;6.938;2023-04-07T15:52:38;9.20;99.90
12436;DHT22;6282;51.440;6.938;2023-04-07T15:55:05;9.20;99.90
12436;DHT22;6282;51.440;6.938;2023-04-07T15:57:32;9.30;99.90
12436;DHT22;6282;51.440;6.938;2023-04-07T15:59:59;9.30;99.90
12436;DHT22;6282;51.440;6.938;2023-04-07T16:02:26;9.30;99.90
12436;DHT22;6282;51.440;6.938;2023-04-07T16:04:54;9.20;99.90
12436;DHT22;6282;51.440;6.938;2023-04-07T16:07:21;9.30;99.90
12436;DHT22;6282;51.440;6.938;2023-04-07T16:09:48;9.20;99.90
12436;DHT22;6282;51.440;6.938;2023-04-07T16:12:15;9.20;99.90